createdAt,value
2022-08-02T00:01:19.033Z,18.02
2022-08-02T00:03:45.732Z,11.55
2022-08-02T00:06:12.528Z,6.88
2022-08-02T00:08:39.255Z,18.00
2022-08-02T00:11:05.948Z,11.55
2022-08-02T00:13:32.890Z,13.13
2022-08-02T00:15:59.567Z,9.48
2022-08-02T00:18:26.209Z,16.95
2022-08-02T00:20:52.945Z,12.75
2022-08-02T00:23:19.586Z,14.98
2022-08-02T00:25:55.009Z,13.52
2022-08-02T00:28:27.350Z,12.63
2022-08-02T00:30:55.751Z,12.98
2022-08-02T00:34:27.516Z,12.43
2022-08-02T00:36:09.141Z,19.38
2022-08-02T00:38:35.858Z,14.07
2022-08-02T00:41:02.529Z,14.43
2022-08-02T00:43:29.187Z,10.93
2022-08-02T00:46:02.314Z,14.50
2022-08-02T00:48:30.653Z,9.15
2022-08-02T00:50:58.994Z,10.43
2022-08-02T00:53:25.724Z,14.75
2022-08-02T00:55:52.716Z,13.48
2022-08-02T00:58:19.749Z,15.55
2022-08-02T01:00:46.437Z,15.18
2022-08-02T01:03:13.186Z,13.43
2022-08-02T01:06:09.167Z,8.13
2022-08-02T01:08:29.506Z,11.98
2022-08-02T01:10:58.581Z,14.18
2022-08-02T01:13:26.037Z,9.35
2022-08-02T01:16:02.443Z,10.35
2022-08-02T01:18:36.092Z,13.48
2022-08-02T01:21:22.867Z,9.02
2022-08-02T01:24:02.239Z,14.15
2022-08-02T01:26:38.650Z,9.77
2022-08-02T01:29:14.557Z,10.32
2022-08-02T01:31:41.181Z,10.13
2022-08-02T01:34:37.624Z,12.20
2022-08-02T01:37:13.379Z,8.75
2022-08-02T01:39:42.223Z,15.35
2022-08-02T01:42:10.125Z,12.30
2022-08-02T01:44:38.676Z,10.38
2022-08-02T01:47:09.506Z,9.43
2022-08-02T01:49:38.044Z,11.88
2022-08-02T01:52:23.430Z,7.80
2022-08-02T01:54:52.324Z,9.00
2022-08-02T01:57:21.907Z,11.82
2022-08-02T01:59:49.893Z,8.00
2022-08-02T02:02:17.149Z,9.60
2022-08-02T02:04:44.477Z,12.73
2022-08-02T02:07:13.595Z,15.93
2022-08-02T02:09:49.285Z,14.52
2022-08-02T02:12:18.195Z,10.23
2022-08-02T02:14:51.460Z,9.57
2022-08-02T02:17:52.792Z,10.20
2022-08-02T02:20:09.254Z,17.60
2022-08-02T02:22:35.999Z,12.68
2022-08-02T02:25:06.455Z,15.27
2022-08-02T02:27:34.227Z,12.05
2022-08-02T02:30:05.833Z,15.18
2022-08-02T02:32:33.039Z,10.88
2022-08-02T02:35:00.378Z,9.02
2022-08-02T02:37:28.211Z,12.38
2022-08-02T02:39:56.238Z,10.88
2022-08-02T02:42:28.594Z,12.32
2022-08-02T02:44:55.562Z,10.85
2022-08-02T02:47:22.685Z,12.95
2022-08-02T02:50:08.517Z,9.65
2022-08-02T02:52:35.581Z,8.73
2022-08-02T02:55:02.926Z,7.38
2022-08-02T02:57:31.251Z,8.63
2022-08-02T02:59:58.743Z,9.90
2022-08-02T03:02:25.836Z,11.77
2022-08-02T03:04:57.012Z,7.95
2022-08-02T03:07:25.369Z,9.25
2022-08-02T03:09:54.643Z,12.13
2022-08-02T03:12:27.128Z,12.32
2022-08-02T03:14:59.349Z,8.93
2022-08-02T03:17:26.013Z,10.52
2022-08-02T03:19:52.644Z,15.88
2022-08-02T03:22:19.432Z,14.10
2022-08-02T03:24:48.919Z,8.90
2022-08-02T03:27:15.645Z,14.35
2022-08-02T03:29:42.258Z,13.65
2022-08-02T03:32:09.493Z,11.55
2022-08-02T03:34:36.461Z,13.10
2022-08-02T03:37:03.618Z,10.98
2022-08-02T03:39:31.169Z,14.23
2022-08-02T03:41:58.311Z,11.38
2022-08-02T03:44:25.617Z,14.57
2022-08-02T03:46:53.271Z,14.32
2022-08-02T03:49:20.652Z,14.80
2022-08-02T03:51:47.976Z,15.05
2022-08-02T03:54:15.179Z,10.13
2022-08-02T03:56:42.009Z,17.92
2022-08-02T03:59:13.513Z,11.85
2022-08-02T04:01:40.709Z,11.05
2022-08-02T04:04:07.737Z,14.60
2022-08-02T04:06:34.613Z,11.25
2022-08-02T04:09:01.447Z,15.27
2022-08-02T04:11:31.015Z,10.20
2022-08-02T04:14:02.523Z,12.13
2022-08-02T04:16:35.234Z,14.15
2022-08-02T04:19:03.600Z,10.35
2022-08-02T04:21:41.443Z,10.38
2022-08-02T04:24:24.320Z,12.57
2022-08-02T04:26:54.353Z,13.80
2022-08-02T04:29:21.711Z,9.88
2022-08-02T04:31:48.609Z,16.02
2022-08-02T04:34:15.912Z,16.75
2022-08-02T04:36:43.209Z,12.20
2022-08-02T04:39:10.602Z,16.08
2022-08-02T04:41:44.090Z,12.02
2022-08-02T04:44:13.415Z,19.30
2022-08-02T04:46:41.113Z,14.48
2022-08-02T04:49:08.097Z,14.38
2022-08-02T04:51:42.086Z,13.65
2022-08-02T04:54:10.656Z,12.05
2022-08-02T04:56:38.443Z,13.65
2022-08-02T04:59:05.952Z,11.82
2022-08-02T05:01:32.681Z,14.18
2022-08-02T05:03:59.449Z,13.13
2022-08-02T05:06:26.314Z,12.27
2022-08-02T05:08:53.743Z,16.92
2022-08-02T05:11:22.118Z,17.60
2022-08-02T05:13:57.403Z,13.98
2022-08-02T05:16:31.897Z,15.07
2022-08-02T05:19:00.283Z,12.13
2022-08-02T05:21:27.127Z,16.20
2022-08-02T05:23:53.829Z,13.32
2022-08-02T05:26:20.495Z,10.15
2022-08-02T05:28:47.213Z,11.63
2022-08-02T05:31:14.061Z,11.23
2022-08-02T05:33:40.796Z,16.25
2022-08-02T05:36:09.437Z,10.25
2022-08-02T05:38:37.450Z,11.25
2022-08-02T05:41:05.595Z,9.88
2022-08-02T05:43:32.494Z,12.55
2022-08-02T05:45:59.218Z,10.38
2022-08-02T05:48:31.193Z,14.48
2022-08-02T05:51:24.491Z,13.05
2022-08-02T05:53:59.430Z,14.82
2022-08-02T05:56:35.853Z,11.45
2022-08-02T05:59:10.057Z,11.88
2022-08-02T06:01:40.253Z,12.18
2022-08-02T06:04:09.691Z,15.68
2022-08-02T06:06:38.263Z,10.23
2022-08-02T06:09:10.754Z,11.27
2022-08-02T06:11:40.395Z,11.82
2022-08-02T06:14:07.909Z,11.63
2022-08-02T06:16:42.323Z,12.63
2022-08-02T06:19:09.922Z,11.57
2022-08-02T06:22:33.422Z,18.17
2022-08-02T06:24:24.083Z,17.65
2022-08-02T06:26:54.989Z,12.10
2022-08-02T06:29:23.355Z,13.25
2022-08-02T06:31:53.081Z,12.05
2022-08-02T06:34:19.784Z,15.65
2022-08-02T06:37:07.794Z,9.90
2022-08-02T06:39:57.427Z,15.30
2022-08-02T06:42:33.225Z,11.95
2022-08-02T06:45:02.409Z,12.30
2022-08-02T06:47:29.072Z,16.30
2022-08-02T06:49:56.730Z,14.85
2022-08-02T06:52:28.812Z,13.65
2022-08-02T06:54:59.838Z,13.25
2022-08-02T06:57:27.595Z,9.27
2022-08-02T06:59:54.744Z,15.68
2022-08-02T07:02:21.641Z,14.98
2022-08-02T07:04:48.482Z,17.20
2022-08-02T07:07:15.370Z,18.35
2022-08-02T07:09:56.733Z,15.80
2022-08-02T07:12:32.400Z,11.32
2022-08-02T07:15:01.070Z,16.85
2022-08-02T07:17:28.658Z,12.80
2022-08-02T07:19:55.779Z,15.40
2022-08-02T07:22:24.302Z,13.43
2022-08-02T07:24:51.427Z,9.50
2022-08-02T07:27:18.426Z,9.82
2022-08-02T07:29:46.841Z,11.10
2022-08-02T07:32:18.632Z,13.95
2022-08-02T07:34:50.564Z,13.40
2022-08-02T07:37:35.622Z,11.25
2022-08-02T07:40:22.979Z,13.30
2022-08-02T07:42:52.305Z,13.15
2022-08-02T07:45:20.324Z,10.68
2022-08-02T07:47:47.188Z,10.90
2022-08-02T07:50:16.020Z,11.60
2022-08-02T07:52:43.317Z,9.93
2022-08-02T07:55:10.478Z,7.43
2022-08-02T07:57:43.858Z,10.05
2022-08-02T08:00:12.899Z,7.35
2022-08-02T08:02:39.970Z,7.57
2022-08-02T08:05:07.537Z,9.77
2022-08-02T08:07:37.401Z,9.65
2022-08-02T08:10:05.667Z,8.63
2022-08-02T08:12:32.511Z,10.07
2022-08-02T08:14:59.265Z,6.47
2022-08-02T08:17:26.446Z,6.00
2022-08-02T08:19:53.354Z,5.35
2022-08-02T08:22:20.946Z,4.15
2022-08-02T08:24:48.517Z,6.78
2022-08-02T08:27:16.741Z,6.75
2022-08-02T08:29:43.775Z,6.78
2022-08-02T08:32:16.316Z,5.05
2022-08-02T08:34:48.946Z,3.53
2022-08-02T08:37:18.042Z,6.68
2022-08-02T08:39:57.357Z,6.93
2022-08-02T08:42:28.634Z,3.05
2022-08-02T08:44:56.715Z,4.18
2022-08-02T08:47:26.981Z,4.10
2022-08-02T08:50:05.012Z,3.97
2022-08-02T08:52:36.263Z,3.42
2022-08-02T08:55:05.355Z,6.05
2022-08-02T08:57:32.591Z,6.50
2022-08-02T09:00:01.320Z,4.38
2022-08-02T09:02:28.709Z,5.85
2022-08-02T09:04:55.826Z,3.67
2022-08-02T09:07:25.882Z,4.20
2022-08-02T09:09:52.853Z,6.07
2022-08-02T09:12:22.426Z,1.85
2022-08-02T09:14:49.969Z,4.90
2022-08-02T09:17:18.407Z,3.53
2022-08-02T09:19:46.340Z,2.28
2022-08-02T09:22:16.368Z,1.45
2022-08-02T09:24:45.306Z,5.22
2022-08-02T09:27:17.533Z,2.97
2022-08-02T09:32:47.776Z,4.50
2022-08-02T09:35:15.376Z,3.25
2022-08-02T09:37:45.683Z,4.57
2022-08-02T09:40:15.653Z,3.88
2022-08-02T09:42:59.242Z,5.28
2022-08-02T09:45:31.693Z,5.95
2022-08-02T09:48:00.475Z,9.80
2022-08-02T09:50:27.350Z,6.18
2022-08-02T09:52:56.892Z,4.45
2022-08-02T09:55:24.997Z,4.78
2022-08-02T09:57:52.034Z,3.55
2022-08-02T10:00:31.608Z,4.40
2022-08-02T10:03:08.650Z,3.47
2022-08-02T10:05:55.546Z,4.35
2022-08-02T10:08:23.512Z,3.53
2022-08-02T10:11:00.503Z,4.32
2022-08-02T10:13:31.129Z,2.38
2022-08-02T10:15:58.316Z,3.08
2022-08-02T10:18:38.201Z,2.08
2022-08-02T10:21:08.095Z,7.18
2022-08-02T10:23:37.008Z,4.30
2022-08-02T10:26:04.859Z,3.28
2022-08-02T10:28:31.772Z,3.38
2022-08-02T10:31:04.912Z,2.55
2022-08-02T10:33:34.952Z,2.80
2022-08-02T10:36:06.766Z,3.28
2022-08-02T10:38:36.331Z,4.38
2022-08-02T10:41:03.617Z,6.47
2022-08-02T10:43:36.368Z,4.32
2022-08-02T10:46:21.816Z,3.45
2022-08-02T10:52:01.881Z,3.63
2022-08-02T10:54:31.559Z,2.67
2022-08-02T10:57:01.283Z,4.25
2022-08-02T10:59:36.415Z,4.18
2022-08-02T11:02:06.861Z,4.68
2022-08-02T11:04:53.776Z,2.70
2022-08-02T11:07:35.844Z,3.92
2022-08-02T11:10:24.997Z,3.50
2022-08-02T11:13:11.067Z,4.15
2022-08-02T11:15:48.260Z,4.07
2022-08-02T11:18:15.348Z,5.40
2022-08-02T11:20:43.154Z,9.25
2022-08-02T11:23:44.782Z,2.30
2022-08-02T11:26:30.779Z,3.70
2022-08-02T11:29:02.032Z,2.67
2022-08-02T11:31:29.535Z,5.30
2022-08-02T11:33:56.392Z,3.05
2022-08-02T11:36:23.396Z,4.35
2022-08-02T11:38:50.114Z,2.78
2022-08-02T11:41:46.484Z,5.43
2022-08-02T11:44:07.495Z,2.35
2022-08-02T11:46:34.368Z,4.00
2022-08-02T11:49:15.544Z,6.70
2022-08-02T11:52:05.443Z,2.47
2022-08-02T11:54:39.846Z,6.05
2022-08-02T11:57:15.608Z,3.83
2022-08-02T11:59:48.067Z,4.95
2022-08-02T12:02:16.287Z,2.60
2022-08-02T12:04:44.174Z,2.90
2022-08-02T12:07:11.046Z,4.35
2022-08-02T12:09:41.150Z,5.00
2022-08-02T12:12:08.213Z,4.68
2022-08-02T12:14:43.467Z,4.70
2022-08-02T12:17:29.218Z,2.75
2022-08-02T12:19:55.940Z,5.07
2022-08-02T12:22:27.661Z,2.70
2022-08-02T12:24:56.584Z,7.88
2022-08-02T12:27:37.379Z,7.13
2022-08-02T12:30:08.381Z,4.70
2022-08-02T12:32:36.483Z,4.50
2022-08-02T12:35:07.903Z,10.77
2022-08-02T12:37:36.217Z,6.00
2022-08-02T12:40:24.847Z,5.07
2022-08-02T12:43:05.116Z,3.25
2022-08-02T12:45:40.824Z,3.50
2022-08-02T12:48:08.834Z,3.75
2022-08-02T12:50:37.859Z,3.30
2022-08-02T12:53:26.805Z,5.10
2022-08-02T12:56:03.670Z,3.63
2022-08-02T12:58:31.610Z,4.75
2022-08-02T13:01:01.377Z,6.88
2022-08-02T13:04:09.059Z,4.07
2022-08-02T13:06:40.774Z,4.22
2022-08-02T13:09:12.731Z,5.95
2022-08-02T13:11:42.935Z,6.88
2022-08-02T13:14:11.934Z,4.65
2022-08-02T13:16:38.914Z,4.50
2022-08-02T13:19:06.223Z,2.67
2022-08-02T13:21:41.428Z,2.58
2022-08-02T13:24:39.800Z,2.28
2022-08-02T13:27:09.492Z,4.03
2022-08-02T13:29:40.455Z,7.30
2022-08-02T13:32:07.567Z,2.90
2022-08-02T13:34:34.383Z,2.33
2022-08-02T13:37:01.250Z,2.10
2022-08-02T13:39:28.094Z,4.25
2022-08-02T13:41:55.268Z,2.45
2022-08-02T13:44:21.994Z,4.20
2022-08-02T13:46:49.223Z,3.35
2022-08-02T13:49:19.729Z,2.15
2022-08-02T13:51:48.197Z,1.52
2022-08-02T13:54:18.435Z,4.22
2022-08-02T13:56:45.338Z,4.07
2022-08-02T13:59:55.438Z,2.83
2022-08-02T14:01:59.516Z,2.05
2022-08-02T14:04:26.790Z,2.58
2022-08-02T14:06:53.605Z,4.43
2022-08-02T14:09:20.729Z,4.18
2022-08-02T14:11:47.991Z,1.73
2022-08-02T14:14:17.047Z,4.65
2022-08-02T14:16:45.548Z,5.03
2022-08-02T14:19:16.901Z,3.20
2022-08-02T14:21:46.523Z,3.40
2022-08-02T14:24:22.121Z,8.10
2022-08-02T14:26:48.846Z,5.22
2022-08-02T14:29:16.519Z,2.97
2022-08-02T14:31:44.681Z,4.43
2022-08-02T14:34:13.156Z,1.73
2022-08-02T14:36:40.180Z,2.03
2022-08-02T14:39:06.990Z,1.88
2022-08-02T14:41:58.248Z,3.05
2022-08-02T14:44:23.345Z,3.25
2022-08-02T14:46:51.686Z,3.78
2022-08-02T14:49:26.129Z,2.10
2022-08-02T14:51:56.299Z,3.80
2022-08-02T14:54:30.435Z,2.20
2022-08-02T14:57:03.346Z,2.53
2022-08-02T14:59:32.512Z,2.30
2022-08-02T15:01:59.669Z,1.70
2022-08-02T15:04:26.686Z,2.10
2022-08-02T15:06:55.113Z,5.97
2022-08-02T15:09:22.311Z,4.07
2022-08-02T15:11:52.569Z,2.58
2022-08-02T15:14:25.641Z,2.22
2022-08-02T15:16:56.979Z,2.53
2022-08-02T15:19:25.887Z,2.15
2022-08-02T15:22:14.319Z,1.42
2022-08-02T15:24:44.969Z,2.75
2022-08-02T15:27:14.411Z,2.88
2022-08-02T15:29:42.574Z,1.50
2022-08-02T15:32:09.479Z,1.48
2022-08-02T15:34:36.940Z,1.40
2022-08-02T15:37:03.835Z,1.73
2022-08-02T15:39:31.010Z,1.83
2022-08-02T15:41:58.146Z,1.88
2022-08-02T15:44:25.103Z,1.65
2022-08-02T15:46:54.485Z,2.25
2022-08-02T15:49:24.006Z,4.68
2022-08-02T15:51:54.234Z,3.75
2022-08-02T15:54:24.554Z,1.40
2022-08-02T16:02:34.403Z,1.73
2022-08-02T16:05:14.241Z,3.13
2022-08-02T16:07:42.591Z,1.75
2022-08-02T16:10:11.537Z,1.65
2022-08-02T16:12:38.356Z,3.13
2022-08-02T16:15:05.819Z,1.60
2022-08-02T16:17:54.014Z,3.17
2022-08-02T16:20:19.367Z,3.65
2022-08-02T16:22:47.996Z,2.63
2022-08-02T16:25:17.340Z,2.33
2022-08-02T16:27:59.395Z,3.97
2022-08-02T16:30:32.409Z,2.72
2022-08-02T16:32:59.411Z,1.67
2022-08-02T16:35:30.663Z,2.38
2022-08-02T16:37:57.347Z,2.60
2022-08-02T16:40:24.191Z,2.17
2022-08-02T16:42:51.305Z,1.45
2022-08-02T16:45:20.721Z,1.85
2022-08-02T16:47:56.201Z,1.67
2022-08-02T16:50:28.313Z,3.80
2022-08-02T16:52:58.802Z,3.10
2022-08-02T16:55:29.233Z,2.30
2022-08-02T16:57:58.062Z,4.05
2022-08-02T17:00:24.808Z,1.85
2022-08-02T17:02:51.517Z,1.70
2022-08-02T17:05:18.320Z,1.73
2022-08-02T17:08:07.505Z,2.90
2022-08-02T17:10:34.752Z,3.72
2022-08-02T17:13:11.479Z,4.78
2022-08-02T17:16:01.620Z,4.43
2022-08-02T17:18:28.131Z,7.53
2022-08-02T17:20:55.339Z,4.20
2022-08-02T17:23:22.061Z,4.72
2022-08-02T17:25:52.320Z,5.72
2022-08-02T17:28:21.083Z,2.08
2022-08-02T17:30:59.162Z,4.95
2022-08-02T17:33:27.723Z,1.80
2022-08-02T17:35:55.528Z,1.67
2022-08-02T17:38:26.013Z,2.17
2022-08-02T17:40:57.128Z,2.53
2022-08-02T17:43:29.183Z,1.85
2022-08-02T17:46:00.656Z,1.88
2022-08-02T17:48:50.183Z,1.45
2022-08-02T17:52:14.922Z,7.90
2022-08-02T17:54:09.110Z,2.00
2022-08-02T17:56:36.990Z,5.13
2022-08-02T17:59:20.469Z,3.72
2022-08-02T18:01:53.095Z,2.92
2022-08-02T18:04:26.865Z,3.63
2022-08-02T18:07:03.818Z,3.75
2022-08-02T18:09:31.983Z,1.95
2022-08-02T18:11:58.918Z,2.13
2022-08-02T18:14:26.386Z,6.07
2022-08-02T18:16:53.458Z,7.40
2022-08-02T18:19:20.493Z,2.53
2022-08-02T18:21:48.371Z,4.10
2022-08-02T18:24:16.185Z,4.63
2022-08-02T18:26:43.498Z,2.30
2022-08-02T18:29:12.254Z,1.83
2022-08-02T18:31:40.208Z,1.50
2022-08-02T18:34:19.592Z,2.42
2022-08-02T18:36:51.235Z,1.50
2022-08-02T18:39:18.770Z,3.25
2022-08-02T18:41:47.895Z,4.05
2022-08-02T18:44:16.602Z,4.15
2022-08-02T18:46:43.572Z,2.22
2022-08-02T18:49:14.867Z,3.17
2022-08-02T18:51:42.941Z,2.30
2022-08-02T18:54:12.316Z,2.83
2022-08-02T18:56:40.189Z,7.15
2022-08-02T18:59:15.103Z,1.77
2022-08-02T19:01:48.864Z,2.22
2022-08-02T19:04:27.483Z,2.35
2022-08-02T19:06:56.613Z,3.00
2022-08-02T19:09:30.599Z,4.13
2022-08-02T19:11:57.602Z,6.10
2022-08-02T19:14:28.363Z,4.45
2022-08-02T19:16:57.873Z,3.95
2022-08-02T19:19:29.055Z,2.90
2022-08-02T19:22:15.788Z,4.20
2022-08-02T19:24:45.836Z,3.67
2022-08-02T19:27:25.681Z,6.38
2022-08-02T19:29:53.529Z,6.40
2022-08-02T19:32:42.091Z,4.95
2022-08-02T19:35:28.244Z,7.50
2022-08-02T19:37:59.099Z,4.43
2022-08-02T19:40:27.781Z,2.88
2022-08-02T19:44:21.776Z,3.33
2022-08-02T19:45:49.010Z,3.75
2022-08-02T19:48:17.686Z,8.02
2022-08-02T19:50:50.480Z,6.00
2022-08-02T19:53:22.505Z,3.25
2022-08-02T19:55:59.449Z,5.93
2022-08-02T19:58:28.539Z,4.45
2022-08-02T20:00:55.409Z,9.63
2022-08-02T20:03:51.066Z,3.53
2022-08-02T20:06:12.274Z,3.22
2022-08-02T20:08:40.043Z,4.65
2022-08-02T20:11:20.223Z,5.40
2022-08-02T20:13:50.834Z,5.57
2022-08-02T20:16:20.923Z,3.78
2022-08-02T20:18:56.065Z,6.10
2022-08-02T20:21:34.436Z,3.90
2022-08-02T20:24:07.313Z,3.97
2022-08-02T20:26:35.179Z,5.97
2022-08-02T20:29:04.127Z,8.85
2022-08-02T20:31:31.131Z,4.88
2022-08-02T20:33:57.944Z,7.30
2022-08-02T20:36:26.411Z,6.60
2022-08-02T20:38:54.421Z,9.38
2022-08-02T20:41:22.968Z,4.97
2022-08-02T20:43:51.294Z,9.85
2022-08-02T20:46:18.006Z,4.32
2022-08-02T20:48:46.882Z,7.68
2022-08-02T20:51:14.163Z,3.95
2022-08-02T20:53:54.677Z,3.53
2022-08-02T20:56:23.742Z,8.18
2022-08-02T20:58:52.383Z,4.68
2022-08-02T21:01:21.279Z,4.10
2022-08-02T21:03:58.524Z,4.03
2022-08-02T21:06:28.129Z,4.70
2022-08-02T21:08:56.062Z,8.93
2022-08-02T21:11:25.562Z,17.02
2022-08-02T21:14:07.701Z,6.05
2022-08-02T21:16:36.510Z,9.52
2022-08-02T21:19:08.090Z,5.05
2022-08-02T21:21:37.406Z,5.22
2022-08-02T21:24:04.834Z,6.50
2022-08-02T21:29:18.584Z,7.25
2022-08-02T21:31:45.943Z,5.60
2022-08-02T21:34:26.575Z,8.13
2022-08-02T21:36:55.025Z,5.15
2022-08-02T21:39:22.306Z,7.75
2022-08-02T21:41:49.462Z,6.68
2022-08-02T21:44:21.708Z,8.10
2022-08-02T21:46:53.828Z,5.80
2022-08-02T21:49:40.929Z,5.13
2022-08-02T21:52:09.396Z,5.15
2022-08-02T21:54:39.890Z,6.40
2022-08-02T21:57:06.882Z,5.47
2022-08-02T21:59:35.075Z,7.38
2022-08-02T22:06:25.845Z,8.20
2022-08-02T22:08:54.084Z,8.77
2022-08-02T22:11:21.925Z,7.20
2022-08-02T22:13:48.627Z,5.68
2022-08-02T22:16:18.307Z,7.60
2022-08-02T22:18:51.452Z,8.60
2022-08-02T22:21:19.802Z,10.57
2022-08-02T22:23:50.525Z,5.50
2022-08-02T22:26:19.191Z,4.53
2022-08-02T22:28:52.075Z,4.32
2022-08-02T22:31:40.687Z,5.30
2022-08-02T22:34:26.532Z,4.75
2022-08-02T22:36:56.363Z,4.50
2022-08-02T22:39:23.378Z,4.28
2022-08-02T22:42:06.508Z,6.65
2022-08-02T22:44:35.567Z,3.67
2022-08-02T22:47:06.952Z,7.80
2022-08-02T22:49:38.025Z,4.00
2022-08-02T22:52:12.402Z,5.65
2022-08-02T22:54:41.204Z,6.65
2022-08-02T22:57:11.404Z,5.00
2022-08-02T22:59:02.779Z,5.43
2022-08-02T22:59:39.816Z,5.68
2022-08-02T23:02:07.446Z,5.93
2022-08-02T23:04:34.110Z,3.40
2022-08-02T23:07:00.780Z,4.22
2022-08-02T23:09:27.669Z,6.40
2022-08-02T23:11:54.574Z,4.30
2022-08-02T23:14:21.332Z,5.40
2022-08-02T23:17:07.040Z,4.93
2022-08-02T23:19:51.983Z,7.80
2022-08-02T23:22:29.943Z,4.18
2022-08-02T23:24:59.559Z,6.75
2022-08-02T23:27:26.182Z,3.47
2022-08-02T23:29:52.858Z,6.28
2022-08-02T23:32:22.961Z,5.53
2022-08-02T23:34:52.970Z,3.50
2022-08-02T23:37:19.668Z,6.93
2022-08-02T23:39:46.356Z,5.18
2022-08-02T23:42:13.196Z,4.97
2022-08-02T23:44:40.135Z,5.75
2022-08-02T23:47:07.096Z,6.13
2022-08-02T23:49:34.016Z,7.30
2022-08-02T23:52:01.877Z,8.23
2022-08-02T23:54:29.105Z,6.30
2022-08-02T23:56:56.440Z,7.35
2022-08-02T23:59:23.188Z,9.30
